Time;durP1;ratioP1;P1;durP2;ratioP2;P2;SDS_P1;SDS_P2;PMS_P1;PMS_P2;Temp;Humidity;BMP_temperature;BMP_pressure;BME280_temperature;BME280_humidity;BME280_pressure;Samples;Min_cycle;Max_cycle;Signal;HPM_P1;HPM_P2
2022/01/07 00:00:16;;;;;;;3.40;3.00;;;15.20;59.00;15.90;100876.00;;;;5048673;28;20170;-41
2022/01/07 00:02:45;;;;;;;4.90;3.30;;;15.20;59.00;16.20;100887.00;;;;5048350;28;20178;-42
2022/01/07 00:05:11;;;;;;;4.03;3.10;;;15.20;58.60;16.20;100879.00;;;;5048213;28;20237;-40
2022/01/07 00:07:37;;;;;;;3.90;3.30;;;15.10;58.90;16.20;100877.00;;;;5047972;28;20721;-42
2022/01/07 00:10:04;;;;;;;4.30;3.40;;;15.10;58.70;16.20;100873.00;;;;5048061;28;20470;-41
2022/01/07 00:12:29;;;;;;;3.60;2.90;;;15.10;58.70;16.10;100861.00;;;;5048193;28;20193;-41
2022/01/07 00:14:55;;;;;;;4.37;3.20;;;15.00;58.60;16.10;100855.00;;;;5048350;28;20174;-41
2022/01/07 00:17:21;;;;;;;3.47;3.13;;;15.10;59.00;16.10;100852.00;;;;5047919;28;20690;-40
2022/01/07 00:19:46;;;;;;;3.23;2.93;;;15.00;58.90;16.10;100847.00;;;;5048069;28;20442;-42
2022/01/07 00:22:12;;;;;;;3.80;3.10;;;15.00;58.90;16.10;100844.00;;;;5048351;28;20181;-41
2022/01/07 00:24:38;;;;;;;4.07;3.20;;;15.00;58.50;16.10;100848.00;;;;5048277;28;20236;-41
2022/01/07 00:27:04;;;;;;;3.33;3.00;;;15.00;58.60;16.00;100835.00;;;;5047862;28;20655;-41
2022/01/07 00:29:30;;;;;;;3.80;3.10;;;15.00;58.80;16.00;100835.00;;;;5047759;28;20181;-40
2022/01/07 00:31:55;;;;;;;3.80;3.40;;;15.00;58.90;16.00;100832.00;;;;5048005;28;20342;-41
2022/01/07 00:34:21;;;;;;;3.80;3.17;;;14.90;58.70;16.00;100822.00;;;;5047942;28;20670;-40
2022/01/07 00:36:47;;;;;;;3.40;3.10;;;14.90;58.90;16.00;100814.00;;;;5048064;28;20201;-41
2022/01/07 00:39:12;;;;;;;3.53;2.83;;;14.80;58.80;15.90;100806.00;;;;5047556;28;20178;-40
2022/01/07 00:41:38;;;;;;;4.03;2.90;;;14.80;58.80;15.90;100813.00;;;;5047939;28;20361;-41
2022/01/07 00:44:04;;;;;;;3.93;2.97;;;14.80;58.80;15.60;100794.00;;;;5047430;28;20191;-41
2022/01/07 00:46:30;;;;;;;4.03;3.17;;;14.80;58.80;15.90;100792.00;;;;5047232;28;20166;-40
2022/01/07 00:48:55;;;;;;;3.50;3.20;;;14.80;58.80;15.90;100795.00;;;;5047389;28;20169;-40
2022/01/07 00:51:21;;;;;;;3.10;2.80;;;14.70;58.70;15.90;100788.00;;;;5047810;28;20166;-41
2022/01/07 00:53:47;;;;;;;3.60;2.90;;;14.70;58.70;15.90;100793.00;;;;5047858;28;20186;-41
2022/01/07 00:56:13;;;;;;;3.33;3.03;;;14.60;58.80;15.80;100782.00;;;;5045890;28;20700;-41
2022/01/07 00:58:39;;;;;;;3.77;3.00;;;14.60;58.90;15.80;100775.00;;;;5050015;28;20171;-41
2022/01/07 01:01:04;;;;;;;4.60;2.80;;;14.60;58.90;15.80;100777.00;;;;5050706;28;20508;-41
2022/01/07 01:03:30;;;;;;;3.23;2.90;;;14.50;58.90;15.80;100768.00;;;;5050952;28;20222;-41
2022/01/07 01:05:58;;;;;;;3.07;2.77;;;14.50;58.70;15.70;100770.00;;;;5048479;28;20174;-40
2022/01/07 01:08:25;;;;;;;3.10;2.80;;;14.50;58.80;15.70;100770.00;;;;5048012;28;20190;-40
2022/01/07 01:10:51;;;;;;;4.33;2.83;;;14.50;59.10;15.70;100768.00;;;;5047265;28;20171;-42
2022/01/07 01:13:17;;;;;;;3.63;2.70;;;14.50;58.70;15.70;100767.00;;;;5047097;28;20667;-41
2022/01/07 01:15:43;;;;;;;3.27;2.90;;;14.50;58.90;15.70;100778.00;;;;5047269;28;20239;-40
2022/01/07 01:18:08;;;;;;;3.23;2.60;;;14.50;58.80;15.70;100772.00;;;;5047114;28;20248;-41
2022/01/07 01:20:34;;;;;;;3.10;2.80;;;14.40;58.90;15.60;100762.00;;;;5046972;28;20220;-41
2022/01/07 01:23:00;;;;;;;3.53;2.77;;;14.50;58.80;15.60;100769.00;;;;5046916;28;20532;-40
2022/01/07 01:25:26;;;;;;;2.90;2.70;;;14.40;58.90;15.60;100763.00;;;;5047046;28;20166;-41
2022/01/07 01:27:52;;;;;;;3.53;2.70;;;14.40;59.00;15.60;100764.00;;;;5060138;28;20201;-40
2022/01/07 01:30:17;;;;;;;3.53;2.93;;;14.40;58.90;15.60;100754.00;;;;5057451;28;20181;-41
2022/01/07 01:32:47;;;;;;;3.33;3.03;;;14.30;58.90;15.50;100760.00;;;;5047789;28;20336;-41
2022/01/07 01:35:13;;;;;;;3.27;2.90;;;14.30;59.00;15.50;100753.00;;;;5047562;28;20176;-41
2022/01/07 01:37:39;;;;;;;3.20;2.83;;;14.30;58.90;15.50;100745.00;;;;5047257;28;20490;-41
2022/01/07 01:40:06;;;;;;;2.90;2.70;;;14.30;58.90;15.50;100746.00;;;;5046787;28;20174;-40
2022/01/07 01:42:32;;;;;;;2.97;2.60;;;14.30;58.90;15.50;100743.00;;;;5045551;28;20185;-41
2022/01/07 01:44:58;;;;;;;3.47;2.70;;;14.30;58.90;15.50;100737.00;;;;5037110;28;20668;-41
2022/01/07 01:47:23;;;;;;;2.93;2.67;;;14.30;59.00;15.50;100731.00;;;;5034099;28;20206;-42
2022/01/07 01:49:49;;;;;;;3.47;2.77;;;14.20;59.00;15.50;100709.00;;;;5026122;28;20649;-41
2022/01/07 01:52:15;;;;;;;3.13;2.60;;;14.20;58.90;15.40;100730.00;;;;5027341;28;20221;-41
2022/01/07 01:54:43;;;;;;;3.13;2.70;;;14.20;59.00;15.40;100728.00;;;;5027028;28;20163;-42
2022/01/07 01:57:10;;;;;;;2.93;2.60;;;14.20;58.90;15.40;100727.00;;;;5026569;28;20691;-41
2022/01/07 01:59:35;;;;;;;2.80;2.60;;;14.20;58.90;15.40;100707.00;;;;5026483;28;20186;-40
2022/01/07 02:02:01;;;;;;;2.83;2.50;;;14.10;58.80;15.40;100711.00;;;;5025499;28;20376;-41
2022/01/07 02:04:28;;;;;;;3.30;2.70;;;14.10;58.90;15.40;100707.00;;;;5026877;28;20195;-41
2022/01/07 02:06:54;;;;;;;2.93;2.63;;;14.10;58.90;15.30;100707.00;;;;5029402;28;20195;-41
2022/01/07 02:09:25;;;;;;;3.50;2.60;;;14.10;58.70;15.30;100694.00;;;;5029193;28;20178;-41
2022/01/07 02:11:51;;;;;;;2.77;2.50;;;14.10;58.80;15.30;100701.00;;;;5027155;28;20630;-41
2022/01/07 02:14:16;;;;;;;2.67;2.47;;;14.10;58.80;15.30;100699.00;;;;5027094;28;20324;-40
2022/01/07 02:16:42;;;;;;;2.87;2.60;;;14.10;58.70;15.30;100700.00;;;;5026467;28;20229;-40
2022/01/07 02:19:08;;;;;;;3.20;2.60;;;14.10;58.70;15.30;100693.00;;;;5028952;28;20179;-41
2022/01/07 02:21:37;;;;;;;3.03;2.50;;;14.00;58.70;15.20;100677.00;;;;5028788;28;20808;-41
2022/01/07 02:24:04;;;;;;;3.00;2.70;;;14.00;58.80;15.20;100684.00;;;;5025633;28;20671;-41
2022/01/07 02:26:33;;;;;;;2.80;2.53;;;14.00;59.80;15.20;100677.00;;;;5025041;28;20646;-40
2022/01/07 02:28:59;;;;;;;5.57;2.77;;;14.00;59.10;15.20;100665.00;;;;5024908;28;20697;-41
2022/01/07 02:31:25;;;;;;;7.70;2.77;;;14.00;59.40;15.20;100668.00;;;;5025273;28;20318;-40
2022/01/07 02:33:51;;;;;;;3.53;2.77;;;14.00;59.30;15.20;100668.00;;;;5025931;28;20183;-41
2022/01/07 02:36:16;;;;;;;5.80;3.03;;;13.90;59.10;15.20;100648.00;;;;5025301;28;20669;-40
2022/01/07 02:38:42;;;;;;;3.47;2.50;;;13.90;59.10;15.20;100671.00;;;;5025634;28;20182;-41
2022/01/07 02:41:08;;;;;;;4.33;2.80;;;13.90;59.30;15.10;100662.00;;;;5026056;28;20178;-41
2022/01/07 02:43:33;;;;;;;5.43;2.70;;;13.90;59.10;14.80;100669.00;;;;5024563;28;20191;-41
2022/01/07 02:45:59;;;;;;;3.40;2.60;;;13.90;59.10;15.10;100677.00;;;;5025459;28;20201;-40
2022/01/07 02:48:25;;;;;;;4.20;2.50;;;13.90;59.50;15.10;100667.00;;;;5025363;28;20245;-40
2022/01/07 02:50:50;;;;;;;3.60;2.40;;;13.90;59.00;15.10;100655.00;;;;5025449;28;20179;-40
2022/01/07 02:53:16;;;;;;;7.37;2.60;;;13.90;58.90;15.10;100653.00;;;;5025835;28;20202;-41
2022/01/07 02:55:42;;;;;;;3.20;2.60;;;13.90;59.10;15.10;100655.00;;;;5025579;28;20190;-40
2022/01/07 02:58:08;;;;;;;3.37;2.70;;;13.90;59.00;15.10;100656.00;;;;5025782;28;20277;-41
2022/01/07 03:00:33;;;;;;;4.57;2.50;;;13.80;58.90;15.10;100654.00;;;;5025311;28;20183;-41
2022/01/07 03:03:00;;;;;;;4.13;2.50;;;13.80;59.00;15.00;100655.00;;;;5025749;28;20166;-40
2022/01/07 03:05:26;;;;;;;3.03;2.40;;;13.80;59.00;15.00;100651.00;;;;5025911;28;20527;-39
2022/01/07 03:07:52;;;;;;;5.03;2.60;;;13.70;59.00;15.00;100643.00;;;;5025363;28;20202;-41
2022/01/07 03:10:21;;;;;;;3.60;2.37;;;13.80;59.00;15.00;100642.00;;;;5025070;28;20328;-41
2022/01/07 03:12:47;;;;;;;3.93;2.20;;;13.80;58.80;15.00;100641.00;;;;5025105;28;20178;-40
2022/01/07 03:15:13;;;;;;;2.83;2.40;;;13.70;58.80;15.00;100639.00;;;;5025150;28;20175;-41
2022/01/07 03:17:40;;;;;;;2.90;2.40;;;13.80;58.90;14.90;100630.00;;;;5025266;28;20274;-40
2022/01/07 03:20:14;;;;;;;3.17;2.40;;;13.80;58.80;14.90;100640.00;;;;5034632;28;20175;-40
2022/01/07 03:22:41;;;;;;;3.07;2.43;;;13.70;58.70;14.90;100627.00;;;;5030753;28;20151;-41
2022/01/07 03:25:07;;;;;;;3.37;2.50;;;13.70;58.70;14.90;100621.00;;;;5024280;28;20199;-40
2022/01/07 03:27:33;;;;;;;3.20;2.60;;;13.70;58.70;14.90;100614.00;;;;5025496;28;20704;-41
2022/01/07 03:29:59;;;;;;;2.43;2.23;;;13.70;58.70;14.90;100611.00;;;;5027688;28;20163;-41
2022/01/07 03:32:25;;;;;;;2.43;2.10;;;13.70;58.80;14.90;100609.00;;;;5029521;28;20171;-41
2022/01/07 03:34:52;;;;;;;2.43;2.23;;;13.70;58.70;14.90;100606.00;;;;5029289;28;20297;-41
2022/01/07 03:37:17;;;;;;;3.53;2.50;;;13.70;58.70;14.90;100596.00;;;;5028623;28;20202;-41
2022/01/07 03:39:43;;;;;;;2.97;2.40;;;13.70;58.70;14.80;100579.00;;;;5029143;28;20175;-41
2022/01/07 03:42:09;;;;;;;3.53;2.60;;;13.70;58.70;14.80;100575.00;;;;5028751;28;20174;-41
2022/01/07 03:44:34;;;;;;;2.53;2.33;;;13.60;58.60;14.80;100571.00;;;;5029252;28;20769;-40
2022/01/07 03:47:00;;;;;;;2.97;2.40;;;13.60;58.70;14.80;100572.00;;;;5028968;28;20215;-40
2022/01/07 03:49:26;;;;;;;2.50;2.10;;;13.60;58.80;14.80;100554.00;;;;5028619;28;20175;-40
2022/01/07 03:51:51;;;;;;;3.00;2.57;;;13.60;58.80;14.80;100552.00;;;;5028600;28;20175;-40
2022/01/07 03:54:17;;;;;;;3.93;2.50;;;13.60;58.90;14.80;100540.00;;;;5028749;28;20182;-40
2022/01/07 03:56:43;;;;;;;3.53;2.30;;;13.50;58.80;14.80;100535.00;;;;5028786;28;20194;-40
2022/01/07 03:59:09;;;;;;;2.30;2.10;;;13.50;58.90;14.80;100533.00;;;;5028895;28;20175;-41
2022/01/07 04:01:34;;;;;;;2.93;2.23;;;13.50;58.80;14.80;100525.00;;;;5028906;28;20202;-40
2022/01/07 04:04:00;;;;;;;2.77;2.40;;;13.50;58.70;14.70;100501.00;;;;5028444;28;20390;-40
2022/01/07 04:06:26;;;;;;;2.30;2.10;;;13.50;58.80;14.70;100510.00;;;;5028249;28;20545;-40
2022/01/07 04:08:51;;;;;;;2.50;2.30;;;13.50;58.70;14.70;100517.00;;;;5028393;28;20267;-41
2022/01/07 04:11:17;;;;;;;2.40;2.20;;;13.50;58.70;14.70;100509.00;;;;5028607;28;20178;-41
2022/01/07 04:13:44;;;;;;;2.70;2.30;;;13.50;58.70;14.70;100512.00;;;;5028682;28;20587;-41
2022/01/07 04:16:10;;;;;;;2.37;2.17;;;13.40;58.70;14.70;100508.00;;;;5028765;28;20449;-40
2022/01/07 04:18:36;;;;;;;2.30;2.10;;;13.40;58.60;14.70;100505.00;;;;5029525;28;20285;-40
2022/01/07 04:21:02;;;;;;;2.47;2.27;;;13.40;58.60;14.70;100508.00;;;;5028996;28;20730;-40
2022/01/07 04:23:28;;;;;;;2.60;2.40;;;13.40;58.70;14.60;100516.00;;;;5027845;28;20199;-40
2022/01/07 04:25:53;;;;;;;2.27;2.07;;;13.40;58.70;14.60;100511.00;;;;5028223;28;20171;-41
2022/01/07 04:28:20;;;;;;;6.17;2.27;;;13.40;58.60;14.60;100501.00;;;;5027489;28;20191;-39
2022/01/07 04:30:45;;;;;;;3.90;2.20;;;13.40;59.40;14.60;100511.00;;;;5028103;28;20177;-41
2022/01/07 04:33:14;;;;;;;3.73;2.27;;;13.50;59.20;14.60;100493.00;;;;5027958;28;20358;-40
2022/01/07 04:35:40;;;;;;;6.17;2.27;;;13.40;58.80;14.60;100490.00;;;;5030264;28;20167;-40
2022/01/07 04:38:06;;;;;;;5.40;2.33;;;13.30;59.20;14.60;100440.00;;;;5028796;28;20191;-40
2022/01/07 04:40:32;;;;;;;5.53;2.43;;;13.30;59.10;14.60;100485.00;;;;5026769;28;20221;-40
2022/01/07 04:43:02;;;;;;;6.87;2.40;;;13.30;59.40;14.60;100484.00;;;;5027616;28;20205;-41
2022/01/07 04:45:28;;;;;;;2.83;2.10;;;13.30;59.30;14.50;100492.00;;;;5028075;28;20183;-41
2022/01/07 04:47:54;;;;;;;5.00;2.50;;;13.30;59.30;14.50;100479.00;;;;5027854;28;20603;-41
2022/01/07 04:50:20;;;;;;;3.70;2.07;;;13.40;59.20;14.50;100476.00;;;;5027558;28;20163;-41
2022/01/07 04:52:46;;;;;;;2.60;2.03;;;13.30;59.10;14.50;100485.00;;;;5026106;28;20559;-40
2022/01/07 04:55:26;;;;;;;3.27;2.40;;;13.30;59.10;14.50;100485.00;;;;5027740;28;20182;-41
2022/01/07 04:57:52;;;;;;;3.20;2.23;;;13.30;59.20;14.50;100472.00;;;;5027975;28;20193;-40
2022/01/07 05:00:19;;;;;;;4.00;2.20;;;13.30;59.10;14.50;100470.00;;;;5026529;28;20201;-41
2022/01/07 05:02:45;;;;;;;2.50;2.20;;;13.30;59.30;14.50;100478.00;;;;5027603;28;20602;-41
2022/01/07 05:05:11;;;;;;;3.73;2.23;;;13.30;59.30;14.50;100477.00;;;;5027364;28;20422;-41
2022/01/07 05:07:37;;;;;;;3.20;2.20;;;13.30;59.30;14.50;100477.00;;;;5027169;28;20210;-40
2022/01/07 05:10:07;;;;;;;3.30;2.30;;;13.30;59.30;14.50;100479.00;;;;5027947;28;20226;-40
2022/01/07 05:12:33;;;;;;;6.53;2.23;;;13.30;59.20;14.40;100473.00;;;;5041307;28;20194;-42
2022/01/07 05:14:59;;;;;;;2.27;2.07;;;13.20;59.10;14.40;100472.00;;;;5034961;28;20179;-41
2022/01/07 05:17:25;;;;;;;3.73;2.30;;;13.30;59.20;14.40;100478.00;;;;5026929;28;20194;-41
2022/01/07 05:19:50;;;;;;;4.70;2.30;;;13.30;59.30;14.40;100484.00;;;;5027516;28;20551;-41
2022/01/07 05:22:16;;;;;;;4.00;2.30;;;13.20;59.20;14.40;100472.00;;;;5027156;28;20553;-40
2022/01/07 05:24:42;;;;;;;6.57;2.50;;;13.20;59.30;14.40;100471.00;;;;5026924;28;20198;-40
2022/01/07 05:27:07;;;;;;;9.80;2.90;;;13.20;59.40;14.40;100476.00;;;;5026996;28;20195;-41
2022/01/07 05:29:35;;;;;;;6.77;3.17;;;13.20;59.50;14.40;100475.00;;;;5025277;28;20782;-41
2022/01/07 05:32:04;;;;;;;11.80;3.30;;;13.20;59.60;14.40;100483.00;;;;5026576;28;20660;-40
2022/01/07 05:34:30;;;;;;;8.53;3.20;;;13.20;59.60;14.40;100483.00;;;;5027139;28;20175;-41
2022/01/07 05:36:56;;;;;;;10.83;3.20;;;13.20;59.40;14.30;100484.00;;;;5025422;28;20268;-41
2022/01/07 05:39:21;;;;;;;10.43;2.87;;;13.10;59.40;14.40;100472.00;;;;5026838;28;20178;-41
2022/01/07 05:41:47;;;;;;;9.03;3.17;;;13.10;59.40;14.40;100478.00;;;;5026761;28;20179;-40
2022/01/07 05:44:13;;;;;;;7.97;2.90;;;13.10;59.40;14.30;100472.00;;;;5026945;28;20201;-40
2022/01/07 05:46:38;;;;;;;8.77;3.00;;;13.10;59.50;14.30;100478.00;;;;5026629;28;20227;-40
2022/01/07 05:49:04;;;;;;;8.40;2.80;;;13.10;59.50;14.30;100467.00;;;;5026379;28;20551;-41
2022/01/07 05:51:30;;;;;;;6.13;2.63;;;13.10;59.30;14.30;100468.00;;;;5026384;28;20637;-41
2022/01/07 05:53:56;;;;;;;5.93;2.57;;;13.10;59.30;14.30;100463.00;;;;5024976;28;20254;-42
2022/01/07 05:56:21;;;;;;;6.67;3.03;;;13.10;59.30;14.30;100459.00;;;;5036107;28;20186;-41
2022/01/07 05:58:47;;;;;;;4.90;2.70;;;13.10;59.10;14.30;100465.00;;;;5025989;28;20178;-41
2022/01/07 06:01:13;;;;;;;4.37;2.70;;;13.10;59.20;14.30;100456.00;;;;5025660;28;20537;-43
2022/01/07 06:03:39;;;;;;;6.27;2.80;;;13.10;59.10;14.20;100468.00;;;;5026261;28;20206;-41
2022/01/07 06:06:05;;;;;;;4.53;2.63;;;13.10;59.10;14.20;100436.00;;;;5026027;28;20316;-40
2022/01/07 06:08:31;;;;;;;5.20;2.70;;;13.00;59.00;14.20;100454.00;;;;5025665;28;20191;-41
2022/01/07 06:10:57;;;;;;;4.60;2.30;;;13.00;58.90;14.20;100444.00;;;;5025644;28;20240;-40
2022/01/07 06:13:22;;;;;;;4.73;2.50;;;13.00;59.00;14.20;100460.00;;;;5025689;28;20755;-40
2022/01/07 06:15:48;;;;;;;5.10;2.57;;;13.00;59.10;14.20;100446.00;;;;5025869;28;20206;-41
2022/01/07 06:18:14;;;;;;;5.83;2.60;;;13.00;59.00;14.20;100451.00;;;;5027402;28;20277;-40
2022/01/07 06:20:39;;;;;;;4.87;2.40;;;13.00;59.10;14.20;100445.00;;;;5026602;28;20183;-40
2022/01/07 06:23:05;;;;;;;4.80;2.50;;;13.00;59.10;14.20;100448.00;;;;5025598;28;20361;-40
2022/01/07 06:25:31;;;;;;;4.23;2.53;;;13.00;59.10;14.20;100456.00;;;;5025497;28;20205;-40
2022/01/07 06:27:56;;;;;;;3.90;2.33;;;13.00;58.90;14.20;100448.00;;;;5025963;28;20554;-41
2022/01/07 06:30:22;;;;;;;4.77;2.30;;;13.00;58.90;14.10;100433.00;;;;5025563;28;20170;-39
2022/01/07 06:32:48;;;;;;;3.47;2.37;;;12.90;58.80;14.10;100445.00;;;;5028310;28;20225;-41
2022/01/07 06:35:14;;;;;;;6.77;2.73;;;13.00;59.00;14.10;100449.00;;;;5029182;28;20178;-40
2022/01/07 06:37:39;;;;;;;4.17;2.50;;;13.00;58.70;14.10;100445.00;;;;5029850;28;20876;-40
2022/01/07 06:40:06;;;;;;;2.83;2.23;;;13.00;58.80;14.10;100441.00;;;;5026927;28;20167;-41
2022/01/07 06:42:32;;;;;;;3.70;2.60;;;12.90;58.70;14.10;100449.00;;;;5026594;28;20416;-40
2022/01/07 06:44:57;;;;;;;3.40;2.20;;;12.90;58.80;14.10;100444.00;;;;5027897;28;20201;-40
2022/01/07 06:47:23;;;;;;;3.73;2.43;;;12.90;58.90;14.10;100444.00;;;;5028306;28;20284;-40
2022/01/07 06:49:49;;;;;;;2.83;2.33;;;12.90;58.70;13.90;100432.00;;;;5024005;28;20264;-41
2022/01/07 06:52:15;;;;;;;2.77;2.00;;;12.90;58.60;14.00;100432.00;;;;5025693;28;20401;-41
2022/01/07 06:54:41;;;;;;;2.53;2.20;;;12.90;58.60;14.00;100426.00;;;;5026072;28;20179;-41
2022/01/07 06:57:06;;;;;;;4.10;2.07;;;12.90;58.80;14.00;100440.00;;;;5027485;28;20264;-40
2022/01/07 06:59:32;;;;;;;3.40;2.23;;;12.90;58.60;14.00;100448.00;;;;5027777;28;20495;-41
2022/01/07 07:01:58;;;;;;;3.70;2.30;;;12.90;58.70;14.00;100445.00;;;;5027033;28;20213;-40
2022/01/07 07:04:23;;;;;;;4.83;2.23;;;12.90;58.60;14.00;100443.00;;;;5034969;28;20206;-40
2022/01/07 07:06:49;;;;;;;3.00;2.37;;;12.90;58.70;14.00;100442.00;;;;5040670;28;20248;-41
2022/01/07 07:09:17;;;;;;;2.43;2.17;;;12.90;58.60;13.90;100440.00;;;;5029642;28;20171;-41
2022/01/07 07:11:43;;;;;;;3.10;2.00;;;12.90;58.50;14.00;100436.00;;;;5030326;28;20186;-41
2022/01/07 07:14:10;;;;;;;2.70;2.03;;;12.90;58.70;14.00;100430.00;;;;5029779;28;20311;-41
2022/01/07 07:16:36;;;;;;;2.57;2.07;;;12.90;58.50;13.90;100432.00;;;;5029423;28;20207;-40
2022/01/07 07:19:02;;;;;;;3.10;2.03;;;12.80;58.50;13.90;100421.00;;;;5029098;28;20181;-41
2022/01/07 07:21:27;;;;;;;2.50;2.00;;;12.80;58.60;13.90;100427.00;;;;5029088;28;20221;-39
2022/01/07 07:23:53;;;;;;;2.60;2.10;;;12.80;58.60;13.90;100431.00;;;;5029281;28;20487;-40
2022/01/07 07:26:19;;;;;;;3.00;2.23;;;12.90;58.70;13.90;100441.00;;;;5028896;28;20245;-40
2022/01/07 07:28:45;;;;;;;3.03;1.80;;;12.90;58.60;13.90;100433.00;;;;5028930;28;20171;-40
2022/01/07 07:31:14;;;;;;;2.50;2.10;;;12.80;58.20;13.90;100431.00;;;;5028773;28;20175;-41
2022/01/07 07:33:56;;;;;;;6.53;2.10;;;12.80;58.30;13.90;100436.00;;;;5029325;28;20525;-39
2022/01/07 07:36:31;;;;;;;3.23;2.10;;;12.80;58.30;13.90;100442.00;;;;5028473;28;20167;-40
2022/01/07 07:39:04;;;;;;;2.00;1.90;;;12.70;58.60;13.90;100440.00;;;;5029309;28;20635;-40
2022/01/07 07:41:30;;;;;;;2.53;2.07;;;12.70;58.70;13.90;100442.00;;;;5028561;28;20179;-40
2022/01/07 07:43:57;;;;;;;2.40;2.10;;;12.70;58.50;13.80;100441.00;;;;5029035;28;20199;-40
2022/01/07 07:46:23;;;;;;;2.47;1.97;;;12.70;58.40;13.90;100444.00;;;;5028663;28;20336;-40
2022/01/07 07:48:48;;;;;;;3.87;2.00;;;12.70;58.40;13.80;100445.00;;;;5028532;28;20175;-40
2022/01/07 07:51:15;;;;;;;2.63;2.10;;;12.60;58.40;13.80;100455.00;;;;5028388;28;20171;-40
2022/01/07 07:53:40;;;;;;;2.27;1.90;;;12.70;58.70;13.80;100459.00;;;;5028694;28;20175;-41
2022/01/07 07:56:07;;;;;;;2.33;1.90;;;12.70;58.50;13.80;100441.00;;;;5028146;28;20550;-40
2022/01/07 07:58:33;;;;;;;2.63;2.03;;;12.70;58.40;13.80;100454.00;;;;5038478;28;20554;-41
2022/01/07 08:00:59;;;;;;;2.10;1.90;;;12.70;58.40;13.80;100443.00;;;;5049977;28;20178;-40
2022/01/07 08:03:24;;;;;;;2.90;2.00;;;12.70;58.50;13.80;100467.00;;;;5049856;28;20174;-40
2022/01/07 08:05:50;;;;;;;2.53;1.90;;;12.70;58.30;13.80;100449.00;;;;5048119;28;20733;-40
2022/01/07 08:08:16;;;;;;;2.33;2.00;;;12.70;58.50;13.70;100451.00;;;;5048091;28;20745;-41
2022/01/07 08:10:48;;;;;;;2.57;2.00;;;12.70;58.30;13.70;100444.00;;;;5047499;28;20205;-41
2022/01/07 08:15:58;;;;;;;2.50;2.00;;;12.70;58.30;13.70;100436.00;;;;5048120;28;20167;-40
2022/01/07 08:18:28;;;;;;;1.90;1.80;;;12.70;58.50;13.70;100449.00;;;;5048254;28;20189;-41
2022/01/07 08:21:08;;;;;;;2.43;2.10;;;12.70;58.30;13.70;100443.00;;;;5047992;28;20472;-41
2022/01/07 08:23:35;;;;;;;2.03;1.83;;;12.70;58.20;13.70;100443.00;;;;5047993;28;20666;-40
2022/01/07 08:26:02;;;;;;;2.83;2.10;;;12.70;58.40;13.70;100436.00;;;;5047655;28;20189;-39
2022/01/07 08:28:34;;;;;;;3.00;1.80;;;12.70;58.30;13.70;100442.00;;;;5047521;28;20197;-41
2022/01/07 08:31:14;;;;;;;2.00;1.80;;;12.60;58.30;13.70;100434.00;;;;5049581;28;20186;-41
2022/01/07 08:36:27;;;;;;;2.10;1.90;;;12.60;58.30;13.60;100452.00;;;;5049815;28;20228;-41
2022/01/07 08:38:53;;;;;;;2.30;1.97;;;12.60;58.10;13.60;100437.00;;;;5049297;28;20279;-40
2022/01/07 08:41:24;;;;;;;1.90;1.77;;;12.60;58.30;13.60;100448.00;;;;5048100;28;20261;-40
2022/01/07 08:43:49;;;;;;;2.47;2.00;;;12.60;58.20;13.60;100455.00;;;;5047763;28;20630;-41
2022/01/07 08:46:15;;;;;;;2.00;1.80;;;12.60;58.20;13.60;100444.00;;;;5046948;28;20249;-41
2022/01/07 08:48:42;;;;;;;2.10;2.00;;;12.60;58.20;13.60;100442.00;;;;5047009;28;20189;-40
2022/01/07 08:51:08;;;;;;;2.00;1.80;;;12.60;58.50;13.60;100441.00;;;;5047635;28;20532;-40
2022/01/07 08:53:34;;;;;;;2.20;1.93;;;12.50;58.50;13.60;100441.00;;;;5047160;28;20178;-40
2022/01/07 08:56:00;;;;;;;2.20;2.00;;;12.60;58.50;13.60;100427.00;;;;5044816;28;20167;-40
2022/01/07 08:58:26;;;;;;;6.83;2.03;;;12.70;58.60;13.70;100432.00;;;;5042173;28;20496;-41
2022/01/07 09:00:51;;;;;;;9.33;2.20;;;12.90;58.60;13.80;100428.00;;;;5030679;28;20245;-41
2022/01/07 09:03:17;;;;;;;6.87;1.97;;;13.20;59.00;13.90;100429.00;;;;5027247;28;20171;-41
2022/01/07 09:05:43;;;;;;;11.43;2.07;;;13.50;58.50;14.00;100429.00;;;;5031641;28;20246;-40
2022/01/07 09:08:12;;;;;;;2.80;1.70;;;13.70;58.10;14.10;100426.00;;;;5031087;28;20195;-40
2022/01/07 09:10:41;;;;;;;5.37;2.30;;;13.90;57.90;14.30;100423.00;;;;5030486;28;20644;-40
2022/01/07 09:13:06;;;;;;;2.70;1.90;;;14.20;57.60;14.50;100417.00;;;;5030321;28;20225;-40
2022/01/07 09:15:32;;;;;;;3.70;2.00;;;14.60;57.20;14.70;100415.00;;;;5030072;28;20325;-41
2022/01/07 09:17:58;;;;;;;3.07;1.63;;;14.70;57.00;14.80;100413.00;;;;5029271;28;20209;-40
2022/01/07 09:20:24;;;;;;;1.93;1.73;;;14.80;56.80;14.90;100397.00;;;;5029757;28;20182;-41
2022/01/07 09:22:50;;;;;;;3.80;1.70;;;14.90;56.80;15.00;100397.00;;;;5030062;28;20265;-41
2022/01/07 09:25:15;;;;;;;2.67;2.00;;;14.90;56.70;15.10;100414.00;;;;5029588;28;20199;-40
2022/01/07 09:27:41;;;;;;;2.30;1.90;;;15.00;56.80;15.20;100407.00;;;;5028725;28;20191;-40
2022/01/07 09:30:09;;;;;;;4.17;1.83;;;15.10;57.00;15.30;100412.00;;;;5029105;28;20170;-40
2022/01/07 09:32:35;;;;;;;4.13;1.93;;;15.30;57.00;15.40;100410.00;;;;5029083;28;20537;-40
2022/01/07 09:35:00;;;;;;;2.97;1.80;;;15.50;56.90;15.60;100416.00;;;;5028375;28;20179;-40
2022/01/07 09:37:26;;;;;;;3.20;1.60;;;15.70;57.00;15.70;100413.00;;;;5048004;28;20289;-41
2022/01/07 09:39:52;;;;;;;2.23;1.80;;;15.80;56.70;15.80;100420.00;;;;5047768;28;20182;-40
2022/01/07 09:42:17;;;;;;;4.03;1.70;;;16.00;57.30;15.90;100425.00;;;;5049796;28;20654;-40
2022/01/07 09:44:43;;;;;;;3.10;1.80;;;16.10;56.60;16.00;100421.00;;;;5048312;28;20194;-40
2022/01/07 09:47:11;;;;;;;5.07;1.70;;;16.20;56.50;16.10;100420.00;;;;5049070;28;20325;-40
2022/01/07 09:49:38;;;;;;;4.67;2.00;;;16.30;56.60;16.20;100421.00;;;;5048712;28;20242;-42
2022/01/07 09:52:04;;;;;;;1.80;1.70;;;16.30;56.50;16.30;100419.00;;;;5048548;28;20522;-40
2022/01/07 09:54:31;;;;;;;2.23;1.50;;;16.30;56.60;16.30;100410.00;;;;5042097;28;20190;-40
2022/01/07 09:56:56;;;;;;;2.37;1.80;;;16.40;56.90;16.40;100427.00;;;;5038390;28;20200;-41
2022/01/07 09:59:22;;;;;;;2.13;1.93;;;16.40;56.90;16.50;100420.00;;;;5041337;28;20449;-40
2022/01/07 10:02:06;;;;;;;3.17;1.80;;;16.40;56.90;16.50;100418.00;;;;5048045;28;20188;-40
2022/01/07 10:04:34;;;;;;;5.87;2.03;;;16.50;57.10;16.60;100417.00;;;;5048907;28;20190;-40
2022/01/07 10:07:09;;;;;;;2.70;1.90;;;16.50;57.00;16.60;100332.00;;;;5048335;28;20190;-40
2022/01/07 10:09:35;;;;;;;2.57;2.00;;;16.40;57.20;16.60;100411.00;;;;5048912;28;20654;-40
2022/01/07 10:12:02;;;;;;;3.60;1.80;;;16.50;57.20;16.70;100410.00;;;;5047469;28;20384;-41
2022/01/07 10:14:30;;;;;;;4.57;2.20;;;16.40;57.30;16.70;100405.00;;;;5048443;28;20200;-39
2022/01/07 10:16:57;;;;;;;2.23;2.00;;;16.40;57.40;16.70;100415.00;;;;5048640;28;20205;-40
2022/01/07 10:19:34;;;;;;;3.27;1.90;;;16.40;57.30;16.70;100406.00;;;;5048127;28;20174;-39
2022/01/07 10:22:08;;;;;;;2.63;2.00;;;16.40;57.40;16.70;100409.00;;;;5048087;28;20178;-41
2022/01/07 10:25:01;;;;;;;3.43;1.90;;;16.40;57.40;16.80;100408.00;;;;5048233;28;20247;-40
2022/01/07 10:27:37;;;;;;;2.27;2.00;;;16.40;57.50;16.70;100387.00;;;;5047710;28;20574;-40
2022/01/07 10:30:26;;;;;;;3.20;1.90;;;16.40;57.60;16.70;100405.00;;;;5047945;28;20535;-42
2022/01/07 10:32:53;;;;;;;2.80;1.83;;;16.40;57.60;16.70;100397.00;;;;5048554;28;20158;-40
2022/01/07 10:35:21;;;;;;;1.90;1.80;;;16.40;57.60;16.70;100398.00;;;;5048465;28;20173;-40
2022/01/07 10:37:57;;;;;;;2.87;1.80;;;16.40;57.70;16.80;100392.00;;;;5047980;28;20322;-41
2022/01/07 10:40:36;;;;;;;2.90;1.90;;;16.40;57.70;16.80;100390.00;;;;5047380;28;20651;-41
2022/01/07 10:43:19;;;;;;;1.97;1.87;;;16.40;57.80;16.80;100385.00;;;;5048005;28;20154;-40
2022/01/07 10:45:53;;;;;;;3.57;2.00;;;16.40;57.80;16.80;100385.00;;;;5048599;28;20615;-41
2022/01/07 10:48:21;;;;;;;2.07;1.80;;;16.40;57.70;16.80;100384.00;;;;5048227;28;20278;-40
2022/01/07 10:50:51;;;;;;;2.17;1.70;;;16.50;57.70;16.90;100382.00;;;;5053136;28;20196;-41